createdAt,value
2022-08-05T00:02:11.260Z,4.70
2022-08-05T00:04:46.117Z,4.40
2022-08-05T00:07:58.799Z,4.47
2022-08-05T00:10:18.130Z,4.80
2022-08-05T00:12:56.388Z,4.70
2022-08-05T00:15:56.413Z,4.73
2022-08-05T00:18:22.765Z,4.40
2022-08-05T00:20:58.139Z,4.53
2022-08-05T00:23:44.384Z,4.30
2022-08-05T00:26:22.050Z,4.40
2022-08-05T00:28:51.661Z,4.67
2022-08-05T00:31:53.237Z,4.60
2022-08-05T00:34:54.152Z,4.30
2022-08-05T00:37:14.315Z,4.60
2022-08-05T00:39:44.129Z,4.20
2022-08-05T00:42:31.807Z,4.23
2022-08-05T00:45:00.421Z,4.50
2022-08-05T00:47:57.043Z,4.37
2022-08-05T00:50:25.176Z,5.40
2022-08-05T00:53:00.183Z,5.17
2022-08-05T00:55:48.159Z,5.03
2022-08-05T00:58:27.406Z,5.90
2022-08-05T01:00:56.046Z,5.93
2022-08-05T01:03:34.085Z,5.63
2022-08-05T01:06:03.827Z,5.40
2022-08-05T01:08:44.218Z,5.30
2022-08-05T01:11:22.390Z,4.67
2022-08-05T01:14:10.191Z,5.97
2022-08-05T01:16:49.455Z,6.37
2022-08-05T01:20:01.568Z,6.93
2022-08-05T01:22:34.109Z,6.63
2022-08-05T01:25:40.387Z,6.87
2022-08-05T01:28:31.257Z,8.07
2022-08-05T01:31:03.450Z,7.70
2022-08-05T01:33:43.183Z,7.93
2022-08-05T01:36:28.222Z,8.30
2022-08-05T01:39:00.161Z,7.63
2022-08-05T01:41:38.199Z,8.53
2022-08-05T01:44:15.434Z,9.03
2022-08-05T01:46:51.219Z,8.43
2022-08-05T01:49:26.336Z,7.97
2022-08-05T01:52:23.214Z,8.17
2022-08-05T01:55:14.207Z,8.57
2022-08-05T01:58:10.636Z,7.60
2022-08-05T02:00:52.219Z,7.40
2022-08-05T02:03:31.939Z,8.13
2022-08-05T02:06:33.973Z,8.63
2022-08-05T02:09:00.754Z,8.63
2022-08-05T02:11:42.208Z,7.27
2022-08-05T02:14:14.087Z,7.53
2022-08-05T02:16:55.232Z,7.47
2022-08-05T02:19:34.381Z,8.27
2022-08-05T02:22:25.957Z,7.40
2022-08-05T02:25:12.667Z,8.13
2022-08-05T02:27:59.304Z,7.90
2022-08-05T02:30:34.522Z,7.10
2022-08-05T02:33:12.255Z,7.70
2022-08-05T02:35:50.967Z,6.90
2022-08-05T02:38:37.291Z,7.50
2022-08-05T02:41:17.337Z,7.00
2022-08-05T02:44:05.880Z,7.67
2022-08-05T02:46:44.003Z,6.80
2022-08-05T02:49:36.983Z,7.07
2022-08-05T02:52:09.446Z,7.17
2022-08-05T02:54:50.740Z,7.83
2022-08-05T02:58:12.236Z,7.23
2022-08-05T03:00:22.298Z,7.10
2022-08-05T03:02:54.874Z,7.37
2022-08-05T03:06:53.647Z,6.97
2022-08-05T03:08:29.905Z,7.33
2022-08-05T03:11:55.827Z,7.57
2022-08-05T03:14:03.175Z,8.00
2022-08-05T03:16:38.491Z,8.00
2022-08-05T03:19:12.738Z,8.43
2022-08-05T03:21:53.300Z,8.87
2022-08-05T03:24:29.396Z,8.70
2022-08-05T03:27:06.769Z,8.17
2022-08-05T03:29:44.577Z,7.70
2022-08-05T03:32:31.022Z,8.17
2022-08-05T03:34:59.704Z,8.37
2022-08-05T03:37:46.087Z,9.50
2022-08-05T03:40:24.453Z,9.90
2022-08-05T03:43:58.663Z,10.53
2022-08-05T03:45:57.835Z,10.57
2022-08-05T03:48:35.122Z,9.10
2022-08-05T03:52:38.976Z,11.00
2022-08-05T03:55:52.829Z,11.73
2022-08-05T03:57:16.589Z,13.43
2022-08-05T04:00:01.578Z,12.80
2022-08-05T04:02:37.890Z,13.63
2022-08-05T04:05:16.390Z,13.77
2022-08-05T04:07:53.187Z,11.20
2022-08-05T04:10:38.205Z,11.73
2022-08-05T04:13:07.552Z,13.17
2022-08-05T04:16:02.830Z,12.93
2022-08-05T04:18:32.104Z,13.47
2022-08-05T04:21:06.349Z,13.30
2022-08-05T04:23:57.160Z,14.37
2022-08-05T04:26:32.678Z,15.13
2022-08-05T04:29:01.047Z,13.30
2022-08-05T04:31:42.995Z,13.00
2022-08-05T04:34:31.870Z,13.23
2022-08-05T04:37:05.378Z,13.57
2022-08-05T04:39:35.333Z,12.37
2022-08-05T04:42:12.384Z,12.20
2022-08-05T04:44:40.879Z,12.60
2022-08-05T04:47:20.075Z,11.50
2022-08-05T04:50:02.432Z,12.37
2022-08-05T04:52:43.380Z,12.40
2022-08-05T04:56:14.643Z,12.47
2022-08-05T04:58:28.366Z,12.43
2022-08-05T05:00:57.830Z,12.93
2022-08-05T05:03:41.851Z,12.03
2022-08-05T05:06:39.233Z,11.90
2022-08-05T05:09:06.396Z,12.10
2022-08-05T05:11:41.474Z,13.23
2022-08-05T05:14:18.407Z,11.47
2022-08-05T05:16:56.263Z,11.83
2022-08-05T05:19:36.908Z,10.20
2022-08-05T05:22:24.496Z,11.20
2022-08-05T05:25:01.447Z,11.17
2022-08-05T05:27:53.754Z,12.00
2022-08-05T05:30:33.459Z,12.87
2022-08-05T05:33:09.041Z,11.70
2022-08-05T05:35:51.877Z,13.10
2022-08-05T05:38:26.786Z,12.13
2022-08-05T05:41:02.435Z,12.73
2022-08-05T05:43:56.721Z,14.00
2022-08-05T05:46:26.435Z,14.77
2022-08-05T05:48:54.585Z,12.20
2022-08-05T05:51:30.452Z,13.00
2022-08-05T05:54:18.183Z,12.50
2022-08-05T05:56:54.497Z,10.93
2022-08-05T05:59:29.344Z,11.37
2022-08-05T06:02:16.428Z,12.17
2022-08-05T06:04:49.216Z,10.20
2022-08-05T06:07:41.141Z,10.50
2022-08-05T06:10:11.653Z,9.80
2022-08-05T06:12:48.477Z,10.30
2022-08-05T06:15:23.946Z,10.73
2022-08-05T06:18:00.482Z,10.03
2022-08-05T06:20:28.599Z,9.33
2022-08-05T06:23:04.162Z,9.57
2022-08-05T06:26:12.661Z,10.10
2022-08-05T06:28:28.432Z,9.70
2022-08-05T06:30:56.865Z,10.93
2022-08-05T06:34:06.191Z,10.37
2022-08-05T06:36:21.548Z,9.50
2022-08-05T06:39:01.510Z,10.07
2022-08-05T06:41:31.620Z,10.53
2022-08-05T06:44:09.496Z,11.07
2022-08-05T06:46:37.685Z,10.07
2022-08-05T06:49:13.462Z,9.33
2022-08-05T06:51:41.914Z,10.20
2022-08-05T06:54:19.014Z,10.60
2022-08-05T06:56:54.683Z,10.00
2022-08-05T06:59:58.303Z,9.10
2022-08-05T07:02:30.128Z,8.27
2022-08-05T07:05:15.336Z,9.27
2022-08-05T07:07:49.046Z,8.37
2022-08-05T07:10:23.520Z,7.43
2022-08-05T07:13:34.100Z,6.97
2022-08-05T07:17:56.977Z,7.20
2022-08-05T07:20:05.751Z,7.67
2022-08-05T07:22:28.730Z,7.80
2022-08-05T07:24:59.395Z,7.70
2022-08-05T07:27:57.421Z,7.63
2022-08-05T07:30:27.096Z,7.40
2022-08-05T07:33:09.768Z,7.97
2022-08-05T07:36:03.940Z,6.83
2022-08-05T07:38:43.519Z,7.60
2022-08-05T07:42:13.252Z,6.80
2022-08-05T07:44:18.814Z,6.90
2022-08-05T07:46:54.533Z,6.50
2022-08-05T07:49:22.627Z,6.70
2022-08-05T07:51:54.603Z,6.17
2022-08-05T07:54:41.178Z,6.10
2022-08-05T07:57:58.785Z,5.47
2022-08-05T08:00:17.925Z,5.67
2022-08-05T08:03:14.229Z,5.30
2022-08-05T08:05:47.282Z,5.63
2022-08-05T08:08:26.100Z,5.40
2022-08-05T08:10:56.741Z,5.10
2022-08-05T08:13:31.601Z,4.90
2022-08-05T08:16:35.200Z,5.63
2022-08-05T08:19:05.591Z,5.10
2022-08-05T08:21:34.552Z,5.23
2022-08-05T08:24:14.063Z,4.97
2022-08-05T08:26:43.753Z,4.93
2022-08-05T08:30:03.267Z,4.70
2022-08-05T08:32:08.002Z,5.10
2022-08-05T08:34:45.593Z,4.63
2022-08-05T08:37:14.880Z,4.60
2022-08-05T08:39:53.695Z,4.30
2022-08-05T08:42:50.499Z,4.10
2022-08-05T08:45:26.755Z,4.67
2022-08-05T08:48:11.838Z,4.43
2022-08-05T08:51:07.709Z,4.13
2022-08-05T08:53:46.126Z,4.20
2022-08-05T08:56:27.632Z,4.03
2022-08-05T08:58:59.285Z,4.43
2022-08-05T09:01:35.609Z,4.60
2022-08-05T09:04:10.844Z,4.03
2022-08-05T09:06:45.665Z,4.23
2022-08-05T09:09:18.041Z,3.73
2022-08-05T09:11:55.315Z,2.97
2022-08-05T09:14:58.881Z,3.00
2022-08-05T09:17:41.243Z,2.83
2022-08-05T09:20:13.282Z,2.90
2022-08-05T09:23:18.656Z,3.20
2022-08-05T09:26:01.346Z,3.00
2022-08-05T09:28:38.667Z,2.90
2022-08-05T09:31:23.442Z,2.67
2022-08-05T09:34:09.822Z,2.40
2022-08-05T09:36:45.879Z,2.30
2022-08-05T09:39:45.106Z,2.73
2022-08-05T09:42:23.683Z,2.27
2022-08-05T09:45:17.895Z,2.20
2022-08-05T09:47:56.435Z,1.97
2022-08-05T09:50:44.419Z,2.10
2022-08-05T09:53:23.023Z,1.90
2022-08-05T09:56:13.525Z,1.60
2022-08-05T09:58:57.905Z,1.70
2022-08-05T10:01:32.997Z,2.50
2022-08-05T10:04:10.429Z,2.40
2022-08-05T10:06:54.694Z,2.50
2022-08-05T10:09:27.825Z,2.70
2022-08-05T10:12:31.103Z,2.80
2022-08-05T10:15:20.175Z,2.37
2022-08-05T10:18:13.684Z,2.63
2022-08-05T10:20:47.732Z,2.73
2022-08-05T10:23:55.844Z,2.43
2022-08-05T10:26:14.864Z,1.93
2022-08-05T10:28:50.732Z,2.10
2022-08-05T10:32:53.302Z,1.90
2022-08-05T10:34:19.731Z,1.90
2022-08-05T10:36:55.584Z,2.13
2022-08-05T10:39:59.236Z,2.00
2022-08-05T10:42:33.611Z,2.10
2022-08-05T10:45:23.821Z,2.33
2022-08-05T10:48:31.347Z,1.90
2022-08-05T10:51:21.686Z,1.47
2022-08-05T10:53:58.493Z,1.13
2022-08-05T10:56:36.717Z,1.37
2022-08-05T11:00:02.260Z,1.20
2022-08-05T11:02:34.980Z,1.47
2022-08-05T11:05:05.625Z,1.20
2022-08-05T11:08:02.680Z,1.13
2022-08-05T11:10:32.503Z,1.30
2022-08-05T11:13:07.750Z,1.20
2022-08-05T11:16:01.307Z,1.00
2022-08-05T11:18:37.738Z,1.00
2022-08-05T11:21:48.913Z,1.10
2022-08-05T11:24:30.530Z,0.90
2022-08-05T11:27:45.813Z,1.00
2022-08-05T11:30:26.787Z,0.97
2022-08-05T11:33:43.999Z,1.10
2022-08-05T11:36:34.517Z,1.10
2022-08-05T11:39:09.311Z,1.30
2022-08-05T11:41:56.314Z,1.30
2022-08-05T11:44:53.244Z,1.00
2022-08-05T11:47:49.896Z,1.40
2022-08-05T11:50:19.007Z,1.30
2022-08-05T11:52:57.745Z,1.37
2022-08-05T11:55:32.110Z,1.73
2022-08-05T11:58:19.067Z,1.10
2022-08-05T12:00:52.788Z,1.20
2022-08-05T12:03:31.985Z,1.67
2022-08-05T12:06:02.955Z,1.17
2022-08-05T12:08:39.272Z,1.20
2022-08-05T12:11:20.882Z,1.10
2022-08-05T12:14:04.394Z,1.20
2022-08-05T12:16:38.347Z,1.20
2022-08-05T12:20:17.247Z,1.13
2022-08-05T12:22:09.398Z,1.20
2022-08-05T12:24:50.442Z,1.20
2022-08-05T12:27:25.066Z,1.23
2022-08-05T12:30:08.897Z,1.00
2022-08-05T12:32:50.338Z,1.00
2022-08-05T12:35:37.018Z,1.03
2022-08-05T12:38:08.104Z,1.10
2022-08-05T12:40:45.797Z,0.93
2022-08-05T12:43:20.638Z,0.90
2022-08-05T12:46:02.878Z,0.80
2022-08-05T12:48:40.114Z,1.07
2022-08-05T12:51:21.700Z,0.93
2022-08-05T12:54:16.533Z,1.00
2022-08-05T12:56:59.821Z,1.00
2022-08-05T12:59:46.744Z,0.90
2022-08-05T13:02:32.907Z,0.90
2022-08-05T13:05:06.949Z,1.23
2022-08-05T13:08:00.551Z,0.90
2022-08-05T13:10:32.273Z,1.17
2022-08-05T13:13:09.033Z,0.90
2022-08-05T13:15:49.198Z,1.37
2022-08-05T13:18:25.872Z,0.97
2022-08-05T13:20:55.990Z,1.10
2022-08-05T13:23:24.060Z,1.00
2022-08-05T13:26:01.112Z,1.20
2022-08-05T13:28:35.882Z,0.90
2022-08-05T13:31:14.349Z,1.00
2022-08-05T13:34:21.709Z,1.20
2022-08-05T13:36:39.684Z,0.90
2022-08-05T13:39:24.738Z,0.93
2022-08-05T13:42:02.941Z,0.97
2022-08-05T13:44:40.000Z,0.80
2022-08-05T13:47:34.854Z,0.80
2022-08-05T13:50:14.797Z,0.83
2022-08-05T13:52:46.075Z,0.90
2022-08-05T13:55:41.714Z,0.90
2022-08-05T13:58:30.883Z,0.83
2022-08-05T14:01:06.078Z,0.80
2022-08-05T14:03:35.478Z,0.80
2022-08-05T14:06:26.830Z,0.90
2022-08-05T14:08:56.639Z,0.87
2022-08-05T14:11:34.882Z,0.60
2022-08-05T14:14:23.423Z,0.80
2022-08-05T14:17:00.922Z,0.80
2022-08-05T14:19:29.370Z,0.70
2022-08-05T14:22:10.278Z,1.00
2022-08-05T14:24:41.421Z,0.73
2022-08-05T14:27:20.921Z,0.70
2022-08-05T14:29:52.125Z,0.77
2022-08-05T14:32:27.953Z,0.43
2022-08-05T14:34:57.046Z,0.90
2022-08-05T14:37:44.810Z,0.70
2022-08-05T14:40:17.685Z,0.80
2022-08-05T14:42:51.955Z,0.80
2022-08-05T14:45:20.362Z,0.60
2022-08-05T14:48:03.726Z,0.80
2022-08-05T14:50:35.994Z,0.70
2022-08-05T14:53:14.945Z,0.83
2022-08-05T14:55:52.050Z,0.77
2022-08-05T14:58:33.988Z,0.53
2022-08-05T15:01:02.229Z,0.60
2022-08-05T15:03:39.270Z,0.70
2022-08-05T15:06:15.072Z,0.70
2022-08-05T15:09:01.563Z,0.93
2022-08-05T15:11:50.921Z,0.60
2022-08-05T15:14:34.615Z,0.70
2022-08-05T15:17:44.798Z,0.70
2022-08-05T15:20:04.981Z,0.60
2022-08-05T15:22:33.152Z,0.47
2022-08-05T15:25:11.472Z,0.67
2022-08-05T15:27:52.269Z,0.70
2022-08-05T15:30:28.979Z,0.80
2022-08-05T15:32:57.040Z,0.60
2022-08-05T15:35:36.076Z,0.90
2022-08-05T15:38:34.708Z,0.77
2022-08-05T15:41:21.998Z,0.80
2022-08-05T15:43:48.754Z,0.70
2022-08-05T15:46:24.069Z,0.70
2022-08-05T15:49:00.627Z,0.50
2022-08-05T15:52:04.323Z,0.93
2022-08-05T15:54:34.520Z,0.60
2022-08-05T15:57:18.005Z,0.80
2022-08-05T15:59:57.780Z,0.70
2022-08-05T16:02:33.329Z,0.83
2022-08-05T16:05:01.756Z,0.87
2022-08-05T16:07:37.007Z,0.60
2022-08-05T16:10:05.669Z,0.60
2022-08-05T16:12:46.032Z,0.97
2022-08-05T16:15:18.803Z,0.80
2022-08-05T16:17:58.079Z,1.00
2022-08-05T16:20:27.903Z,0.60
2022-08-05T16:23:03.030Z,0.83
2022-08-05T16:25:32.129Z,0.90
2022-08-05T16:28:10.416Z,0.90
2022-08-05T16:30:41.614Z,0.83
2022-08-05T16:33:16.053Z,0.60
2022-08-05T16:35:44.717Z,0.67
2022-08-05T16:38:25.310Z,0.60
2022-08-05T16:41:00.030Z,0.70
2022-08-05T16:43:38.087Z,0.70
2022-08-05T16:46:24.253Z,0.60
2022-08-05T16:48:59.120Z,0.73
2022-08-05T16:51:31.065Z,0.97
2022-08-05T16:54:23.939Z,0.60
2022-08-05T16:57:02.009Z,0.80
2022-08-05T17:00:01.380Z,0.70
2022-08-05T17:02:26.740Z,0.80
2022-08-05T17:05:03.060Z,0.80
2022-08-05T17:07:39.329Z,0.70
2022-08-05T17:10:22.107Z,0.90
2022-08-05T17:12:55.711Z,0.77
2022-08-05T17:15:48.485Z,0.80
2022-08-05T17:18:20.553Z,1.03
2022-08-05T17:20:55.100Z,0.97
2022-08-05T17:24:04.710Z,0.83
2022-08-05T17:26:18.118Z,0.90
2022-08-05T17:28:47.205Z,0.70
2022-08-05T17:31:24.396Z,1.00
2022-08-05T17:34:11.045Z,0.90
2022-08-05T17:36:53.093Z,0.77
2022-08-05T17:39:24.242Z,1.10
2022-08-05T17:42:17.352Z,1.10
2022-08-05T17:44:50.442Z,0.90
2022-08-05T17:47:26.150Z,0.97
2022-08-05T17:50:04.346Z,0.90
2022-08-05T17:52:54.777Z,0.83
2022-08-05T17:55:34.266Z,1.00
2022-08-05T17:58:21.618Z,1.20
2022-08-05T18:01:00.909Z,1.13
2022-08-05T18:04:03.929Z,1.00
2022-08-05T18:06:29.254Z,1.00
2022-08-05T18:09:06.141Z,1.00
2022-08-05T18:11:42.656Z,0.93
2022-08-05T18:14:20.587Z,0.90
2022-08-05T18:16:51.880Z,0.97
2022-08-05T18:19:27.124Z,0.90
2022-08-05T18:22:09.499Z,1.13
2022-08-05T18:24:47.164Z,0.87
2022-08-05T18:27:18.869Z,1.10
2022-08-05T18:29:54.870Z,0.90
2022-08-05T18:32:28.239Z,1.03
2022-08-05T18:35:05.152Z,1.10
2022-08-05T18:37:40.352Z,1.10
2022-08-05T18:40:34.315Z,1.37
2022-08-05T18:43:05.223Z,1.30
2022-08-05T18:45:44.205Z,1.20
2022-08-05T18:48:30.564Z,1.27
2022-08-05T18:52:05.559Z,1.03
2022-08-05T18:54:13.965Z,1.10
2022-08-05T18:56:51.159Z,1.00
2022-08-05T18:59:44.038Z,1.30
2022-08-05T19:02:27.985Z,1.00
2022-08-05T19:06:05.930Z,1.03
2022-08-05T19:07:55.227Z,1.23
2022-08-05T19:10:31.182Z,1.20
2022-08-05T19:12:59.727Z,1.37
2022-08-05T19:15:59.408Z,0.90
2022-08-05T19:18:25.181Z,1.33
2022-08-05T19:21:00.200Z,1.10
2022-08-05T19:24:07.723Z,1.10
2022-08-05T19:26:29.209Z,0.80
2022-08-05T19:28:57.413Z,1.00
2022-08-05T19:31:33.817Z,1.37
2022-08-05T19:34:13.133Z,1.00
2022-08-05T19:36:53.198Z,0.90
2022-08-05T19:39:21.662Z,1.10
2022-08-05T19:42:08.078Z,1.20
2022-08-05T19:44:45.240Z,1.03
2022-08-05T19:47:21.242Z,1.10
2022-08-05T19:49:51.598Z,0.80
2022-08-05T19:52:32.411Z,1.20
2022-08-05T19:55:06.941Z,1.10
2022-08-05T19:58:28.130Z,1.17
2022-08-05T20:00:52.660Z,1.23
2022-08-05T20:03:27.236Z,1.27
2022-08-05T20:06:15.305Z,1.20
2022-08-05T20:08:51.303Z,1.37
2022-08-05T20:11:21.416Z,1.60
2022-08-05T20:14:12.072Z,1.00
2022-08-05T20:16:41.082Z,1.27
2022-08-05T20:19:18.264Z,1.20
2022-08-05T20:21:49.060Z,1.40
2022-08-05T20:24:24.322Z,1.20
2022-08-05T20:26:52.779Z,1.10
2022-08-05T20:29:29.239Z,1.40
2022-08-05T20:31:59.815Z,1.50
2022-08-05T20:34:34.286Z,1.20
2022-08-05T20:37:04.444Z,1.30
2022-08-05T20:39:52.360Z,1.10
2022-08-05T20:42:26.481Z,1.33
2022-08-05T20:45:04.318Z,1.30
2022-08-05T20:47:33.560Z,1.40
2022-08-05T20:50:16.353Z,1.13
2022-08-05T20:52:46.383Z,1.30
2022-08-05T20:55:55.713Z,1.40
2022-08-05T20:58:16.160Z,1.63
2022-08-05T21:00:54.889Z,1.30
2022-08-05T21:03:25.095Z,1.33
2022-08-05T21:06:00.300Z,1.60
2022-08-05T21:08:41.859Z,1.50
2022-08-05T21:12:07.206Z,2.13
2022-08-05T21:14:05.369Z,1.70
2022-08-05T21:16:41.326Z,1.90
2022-08-05T21:19:09.533Z,1.83
2022-08-05T21:21:50.496Z,1.90
2022-08-05T21:24:20.008Z,1.90
2022-08-05T21:26:58.467Z,1.83
2022-08-05T21:29:32.117Z,2.10
2022-08-05T21:32:09.322Z,2.00
2022-08-05T21:34:45.187Z,1.93
2022-08-05T21:37:41.377Z,2.40
2022-08-05T21:40:13.735Z,2.37
2022-08-05T21:42:51.852Z,2.40
2022-08-05T21:45:24.941Z,2.20
2022-08-05T21:48:14.367Z,2.10
2022-08-05T21:50:53.216Z,2.30
2022-08-05T21:53:29.343Z,2.60
2022-08-05T21:56:05.571Z,2.13
2022-08-05T21:58:58.351Z,2.50
2022-08-05T22:01:35.422Z,2.20
2022-08-05T22:04:13.405Z,2.83
2022-08-05T22:06:42.184Z,2.20
2022-08-05T22:09:25.347Z,1.90
2022-08-05T22:12:13.395Z,1.90
2022-08-05T22:14:49.379Z,1.70
2022-08-05T22:17:17.493Z,2.03
2022-08-05T22:19:57.159Z,2.27
2022-08-05T22:22:31.927Z,1.93
2022-08-05T22:25:31.110Z,2.20
2022-08-05T22:28:12.620Z,2.40
2022-08-05T22:30:57.218Z,2.90
2022-08-05T22:33:57.228Z,2.50
2022-08-05T22:36:25.392Z,2.40
2022-08-05T22:38:53.725Z,2.30
2022-08-05T22:42:10.516Z,2.13
2022-08-05T22:44:16.588Z,2.60
2022-08-05T22:46:54.422Z,4.83
2022-08-05T22:50:18.391Z,3.70
2022-08-05T22:52:30.346Z,4.00
2022-08-05T22:55:04.479Z,3.13
2022-08-05T22:58:02.386Z,2.77
2022-08-05T23:00:37.482Z,2.30
2022-08-05T23:03:13.410Z,2.40
2022-08-05T23:05:41.759Z,2.30
2022-08-05T23:08:18.398Z,1.80
2022-08-05T23:10:46.443Z,1.97
2022-08-05T23:13:21.436Z,2.30
2022-08-05T23:15:50.332Z,2.17
2022-08-05T23:18:28.626Z,2.37
2022-08-05T23:20:57.339Z,2.20
2022-08-05T23:23:34.417Z,2.07
2022-08-05T23:26:03.990Z,1.87
2022-08-05T23:28:38.433Z,2.03
2022-08-05T23:31:24.591Z,2.37
2022-08-05T23:34:06.678Z,2.30
2022-08-05T23:36:38.608Z,2.30
2022-08-05T23:39:23.763Z,2.20
2022-08-05T23:42:01.246Z,2.20
2022-08-05T23:44:37.453Z,1.93
2022-08-05T23:47:15.430Z,1.80
2022-08-05T23:49:52.161Z,2.00
2022-08-05T23:52:35.853Z,1.97
2022-08-05T23:55:16.437Z,2.10
2022-08-05T23:57:52.890Z,2.17
